Time;durP1;ratioP1;P1;durP2;ratioP2;P2;SDS_P1;SDS_P2;PMS_P1;PMS_P2;Temp;Humidity;BMP_temperature;BMP_pressure;BME280_temperature;BME280_humidity;BME280_pressure;Samples;Min_cycle;Max_cycle;Signal;HPM_P1;HPM_P2
2023/06/07 00:02:07;;;;;;;11.83;8.40;;;17.30;14.40;;;;;;5054608;28;20208;-80
2023/06/07 00:04:35;;;;;;;15.90;9.63;;;17.30;14.00;;;;;;5019640;28;20217;-80
2023/06/07 00:07:02;;;;;;;17.03;9.23;;;17.30;16.70;;;;;;5055448;28;20181;-80
2023/06/07 00:09:29;;;;;;;12.43;8.80;;;17.10;16.50;;;;;;5055950;28;20179;-80
2023/06/07 00:11:55;;;;;;;14.73;9.33;;;17.20;19.30;;;;;;5055918;28;20654;-80
2023/06/07 00:14:22;;;;;;;18.27;9.60;;;17.20;18.40;;;;;;5056577;28;20178;-82
2023/06/07 00:16:50;;;;;;;11.73;8.90;;;17.00;21.50;;;;;;5055414;28;20169;-82
2023/06/07 00:19:21;;;;;;;13.67;9.43;;;17.00;22.60;;;;;;5037558;28;20192;-82
2023/06/07 00:21:51;;;;;;;17.60;9.37;;;17.00;24.90;;;;;;5037876;28;20212;-81
2023/06/07 00:24:18;;;;;;;16.27;9.00;;;16.90;24.10;;;;;;5054821;28;20161;-80
2023/06/07 00:26:44;;;;;;;14.50;9.50;;;16.90;26.30;;;;;;5054820;28;20165;-80
2023/06/07 00:29:10;;;;;;;17.03;10.03;;;16.90;27.10;;;;;;5055573;28;20165;-79
2023/06/07 00:31:36;;;;;;;13.47;9.20;;;16.80;26.70;;;;;;5037252;28;20238;-80
2023/06/07 00:34:03;;;;;;;14.47;9.47;;;16.80;27.00;;;;;;5036442;28;20257;-80
2023/06/07 00:36:29;;;;;;;13.53;9.47;;;16.80;27.70;;;;;;5053298;28;20179;-80
2023/06/07 00:38:55;;;;;;;16.33;10.00;;;16.70;28.20;;;;;;5054275;28;20178;-81
2023/06/07 00:41:21;;;;;;;14.33;9.13;;;16.80;28.40;;;;;;5035611;28;20216;-78
2023/06/07 00:43:47;;;;;;;14.87;9.30;;;16.60;29.40;;;;;;5053222;28;20176;-79
2023/06/07 00:46:17;;;;;;;13.17;9.00;;;16.70;30.00;;;;;;5053243;28;20179;-80
2023/06/07 00:48:43;;;;;;;13.20;8.97;;;16.60;29.00;;;;;;5053908;28;20183;-78
2023/06/07 00:51:09;;;;;;;13.67;9.40;;;16.70;29.20;;;;;;5053191;28;20267;-80
2023/06/07 00:53:36;;;;;;;17.13;9.17;;;16.70;28.10;;;;;;5053168;28;20260;-81
2023/06/07 00:56:02;;;;;;;16.13;10.03;;;16.60;29.60;;;;;;5053041;28;20175;-81
2023/06/07 00:58:28;;;;;;;16.67;9.80;;;16.60;31.00;;;;;;5052897;28;20181;-79
2023/06/07 01:00:57;;;;;;;17.30;9.77;;;16.50;32.30;;;;;;5053008;28;20227;-80
2023/06/07 01:03:23;;;;;;;14.23;9.40;;;16.50;33.70;;;;;;5053612;28;20172;-80
2023/06/07 01:05:50;;;;;;;15.20;10.23;;;16.60;32.10;;;;;;5052143;28;20173;-81
2023/06/07 01:08:15;;;;;;;12.27;9.50;;;16.50;32.60;;;;;;5053330;28;20169;-80
2023/06/07 01:10:41;;;;;;;14.13;9.13;;;16.50;32.40;;;;;;5053164;28;20751;-79
2023/06/07 01:13:08;;;;;;;15.53;10.83;;;16.40;35.00;;;;;;5052464;28;20559;-80
2023/06/07 01:15:33;;;;;;;17.50;10.83;;;16.40;34.20;;;;;;5034770;28;20201;-80
2023/06/07 01:18:01;;;;;;;14.43;10.53;;;16.40;34.40;;;;;;5052745;28;20258;-79
2023/06/07 01:20:28;;;;;;;13.20;9.87;;;16.30;37.40;;;;;;5052260;28;20593;-80
2023/06/07 01:22:59;;;;;;;16.17;11.10;;;16.20;38.90;;;;;;5052914;28;20208;-81
2023/06/07 01:25:25;;;;;;;13.97;10.27;;;16.30;38.40;;;;;;5052775;28;20169;-80
2023/06/07 01:27:53;;;;;;;15.23;9.27;;;16.30;36.70;;;;;;5052607;28;20236;-80
2023/06/07 01:30:21;;;;;;;20.27;10.00;;;16.20;38.00;;;;;;5052534;28;20162;-80
2023/06/07 01:32:48;;;;;;;15.90;10.63;;;16.10;41.20;;;;;;5051862;28;20165;-81
2023/06/07 01:35:14;;;;;;;17.73;10.80;;;16.10;42.50;;;;;;5052661;28;20347;-80
2023/06/07 01:37:43;;;;;;;15.93;11.27;;;16.20;40.70;;;;;;5052527;28;20279;-79
2023/06/07 01:40:11;;;;;;;14.97;10.43;;;16.20;40.30;;;;;;5034693;28;20165;-79
2023/06/07 01:42:38;;;;;;;14.27;10.80;;;16.10;39.70;;;;;;5053997;28;20257;-81
2023/06/07 01:45:05;;;;;;;15.53;10.10;;;16.10;40.90;;;;;;5038469;28;20169;-78
2023/06/07 01:47:32;;;;;;;15.57;10.50;;;16.00;42.00;;;;;;5062622;28;20176;-78
2023/06/07 01:49:57;;;;;;;13.73;10.50;;;15.90;43.20;;;;;;5072234;28;20187;-79
2023/06/07 01:52:24;;;;;;;14.77;10.63;;;15.90;45.40;;;;;;5050969;28;20176;-79
2023/06/07 01:54:50;;;;;;;16.90;10.50;;;15.90;46.80;;;;;;5071140;28;20222;-79
2023/06/07 01:57:39;;;;;;;13.97;10.50;;;15.90;45.60;;;;;;5047439;28;20268;-80
2023/06/07 02:00:09;;;;;;;18.30;11.63;;;15.80;47.60;;;;;;5036735;28;20199;-80
2023/06/07 02:02:55;;;;;;;14.93;10.53;;;15.80;48.30;;;;;;5035236;28;20196;-78
2023/06/07 02:05:45;;;;;;;18.23;11.33;;;15.80;48.40;;;;;;5052934;28;20158;-80
2023/06/07 02:08:26;;;;;;;19.07;10.97;;;15.80;48.20;;;;;;5034887;28;20176;-80
2023/06/07 02:10:52;;;;;;;15.63;11.00;;;15.80;46.30;;;;;;5052301;28;20246;-80
2023/06/07 02:13:20;;;;;;;15.70;11.00;;;15.80;44.90;;;;;;5051753;28;20173;-77
2023/06/07 02:15:46;;;;;;;16.50;10.43;;;15.70;47.50;;;;;;5052196;28;20176;-78
2023/06/07 02:18:13;;;;;;;13.93;10.63;;;15.70;46.90;;;;;;5051283;28;20184;-79
2023/06/07 02:20:38;;;;;;;16.67;11.10;;;15.60;49.20;;;;;;5051294;28;20188;-79
2023/06/07 02:23:05;;;;;;;17.77;11.33;;;15.60;49.50;;;;;;5055216;28;20266;-79
2023/06/07 02:25:34;;;;;;;18.83;10.57;;;15.60;50.40;;;;;;5037920;28;20173;-80
2023/06/07 02:28:00;;;;;;;15.00;11.23;;;15.60;49.50;;;;;;5037855;28;20181;-80
2023/06/07 02:30:25;;;;;;;17.97;11.50;;;15.50;49.80;;;;;;5056765;28;20165;-78
2023/06/07 02:32:53;;;;;;;15.13;10.20;;;15.50;52.20;;;;;;5038713;28;20173;-79
2023/06/07 02:35:20;;;;;;;17.57;11.17;;;15.50;52.00;;;;;;5056420;28;20209;-78
2023/06/07 02:37:46;;;;;;;21.30;11.67;;;15.40;53.60;;;;;;5062087;28;20204;-81
2023/06/07 02:40:13;;;;;;;14.80;11.03;;;15.40;55.90;;;;;;5078400;28;20244;-78
2023/06/07 02:42:44;;;;;;;15.90;11.50;;;15.40;52.50;;;;;;5072411;28;20210;-82
2023/06/07 02:45:11;;;;;;;18.87;11.33;;;15.30;54.40;;;;;;5041493;28;20207;-82
2023/06/07 02:47:37;;;;;;;15.37;11.40;;;15.30;54.60;;;;;;5040664;28;20225;-81
2023/06/07 02:50:05;;;;;;;12.83;10.97;;;15.30;54.90;;;;;;5057908;28;20226;-82
2023/06/07 02:52:36;;;;;;;15.67;10.90;;;15.20;56.80;;;;;;5057355;28;20248;-81
2023/06/07 02:55:05;;;;;;;17.47;11.10;;;15.30;57.70;;;;;;5056479;28;20311;-82
2023/06/07 02:57:31;;;;;;;15.90;11.27;;;15.30;55.50;;;;;;5056549;28;20375;-80
2023/06/07 02:59:56;;;;;;;15.10;11.23;;;15.30;55.50;;;;;;5055262;28;21005;-79
2023/06/07 03:02:22;;;;;;;15.27;10.50;;;15.30;55.90;;;;;;5037931;28;20535;-81
2023/06/07 03:04:50;;;;;;;16.87;11.43;;;15.30;55.10;;;;;;5054693;28;20238;-79
2023/06/07 03:07:16;;;;;;;16.20;11.47;;;15.20;54.70;;;;;;5038153;28;20299;-80
2023/06/07 03:09:43;;;;;;;19.20;11.13;;;15.20;55.60;;;;;;5055772;28;20646;-82
2023/06/07 03:12:10;;;;;;;14.90;10.73;;;15.20;56.40;;;;;;5077722;28;20188;-77
2023/06/07 03:14:38;;;;;;;15.47;10.33;;;15.20;56.50;;;;;;5078932;28;20167;-80
2023/06/07 03:17:04;;;;;;;16.90;11.17;;;15.30;55.00;;;;;;5071683;28;20207;-79
2023/06/07 03:19:29;;;;;;;16.63;11.70;;;15.20;53.40;;;;;;5055363;28;20230;-80
2023/06/07 03:21:55;;;;;;;14.67;11.90;;;15.20;54.90;;;;;;5037483;28;20680;-80
2023/06/07 03:24:23;;;;;;;14.40;11.37;;;15.00;57.40;;;;;;5055453;28;20161;-81
2023/06/07 03:26:52;;;;;;;14.40;10.23;;;15.10;58.50;;;;;;5055333;28;20175;-83
2023/06/07 03:29:17;;;;;;;15.30;10.87;;;15.00;57.40;;;;;;5037796;28;20531;-83
2023/06/07 03:31:43;;;;;;;16.17;10.80;;;15.00;59.20;;;;;;5055282;28;20181;-79
2023/06/07 03:34:09;;;;;;;17.30;11.53;;;15.00;59.80;;;;;;5054295;28;20705;-79
2023/06/07 03:36:35;;;;;;;16.70;10.60;;;14.90;60.40;;;;;;5036314;28;20212;-81
2023/06/07 03:39:01;;;;;;;17.53;11.50;;;15.00;60.30;;;;;;5036338;28;20187;-79
2023/06/07 03:41:27;;;;;;;14.77;10.73;;;15.00;61.60;;;;;;5054923;28;20195;-80
2023/06/07 03:43:53;;;;;;;16.33;11.70;;;15.00;62.10;;;;;;5068878;28;20185;-79
2023/06/07 03:46:19;;;;;;;17.73;11.00;;;14.90;62.50;;;;;;5079031;28;20176;-81
2023/06/07 03:48:45;;;;;;;17.30;11.60;;;14.90;64.50;;;;;;5076384;28;20180;-78
2023/06/07 03:51:10;;;;;;;15.47;10.77;;;14.90;62.40;;;;;;5075726;28;20169;-81
2023/06/07 03:53:36;;;;;;;15.33;11.27;;;14.90;62.30;;;;;;5075477;28;20186;-80
2023/06/07 03:56:02;;;;;;;19.00;11.53;;;14.80;64.80;;;;;;5074598;28;20186;-80
2023/06/07 03:58:27;;;;;;;15.63;11.00;;;14.80;67.20;;;;;;5051130;28;20179;-81
2023/06/07 04:01:02;;;;;;;19.07;11.50;;;14.80;66.90;;;;;;5068374;28;20193;-81
2023/06/07 04:04:10;;;;;;;16.17;11.70;;;14.80;67.30;;;;;;5058668;28;20167;-79
2023/06/07 04:06:39;;;;;;;17.90;11.73;;;14.80;66.20;;;;;;5037895;28;20211;-80
2023/06/07 04:09:07;;;;;;;18.33;11.50;;;14.80;63.70;;;;;;5034599;28;20563;-81
2023/06/07 04:11:34;;;;;;;16.50;10.73;;;14.80;65.60;;;;;;5016529;28;20586;-78
2023/06/07 04:13:59;;;;;;;17.20;10.53;;;14.80;68.40;;;;;;5034429;28;20162;-80
2023/06/07 04:16:25;;;;;;;19.43;11.03;;;14.80;64.10;;;;;;5033873;28;20162;-78
2023/06/07 04:18:52;;;;;;;19.33;11.90;;;14.80;61.70;;;;;;5023308;28;20220;-81
2023/06/07 04:21:18;;;;;;;15.90;11.00;;;14.90;63.30;;;;;;5035857;28;20209;-82
2023/06/07 04:23:43;;;;;;;18.43;12.30;;;14.80;60.20;;;;;;5036591;28;20176;-82
2023/06/07 04:26:09;;;;;;;18.23;11.37;;;14.80;61.50;;;;;;5054685;28;20634;-81
2023/06/07 04:28:35;;;;;;;17.00;11.87;;;14.80;61.10;;;;;;5054873;28;20202;-81
2023/06/07 04:31:00;;;;;;;12.87;10.60;;;14.70;62.70;;;;;;5053743;28;20593;-81
2023/06/07 04:33:27;;;;;;;19.70;11.90;;;14.80;63.40;;;;;;5054648;28;20624;-81
2023/06/07 04:36:02;;;;;;;17.57;11.43;;;14.70;65.30;;;;;;5054498;28;20166;-79
2023/06/07 04:38:29;;;;;;;17.57;11.23;;;14.80;62.40;;;;;;5053945;28;20221;-80
2023/06/07 04:40:55;;;;;;;17.73;10.77;;;14.80;59.60;;;;;;5038362;28;20576;-80
2023/06/07 04:43:23;;;;;;;17.03;10.97;;;14.80;58.40;;;;;;5054727;28;20515;-80
2023/06/07 04:45:55;;;;;;;17.87;11.53;;;14.70;59.90;;;;;;5036182;28;20266;-79
2023/06/07 04:48:25;;;;;;;15.43;11.40;;;14.70;61.00;;;;;;5054537;28;20179;-81
2023/06/07 04:50:52;;;;;;;16.00;11.27;;;14.70;62.10;;;;;;5054675;28;20207;-80
2023/06/07 04:53:19;;;;;;;17.47;11.10;;;14.70;58.80;;;;;;5054943;28;20711;-80
2023/06/07 04:55:47;;;;;;;16.83;11.20;;;14.70;59.00;;;;;;5054083;28;20170;-81
2023/06/07 04:58:18;;;;;;;19.23;12.03;;;14.80;58.40;;;;;;5053676;28;20172;-78
2023/06/07 05:00:45;;;;;;;13.60;10.67;;;14.80;56.60;;;;;;5054173;28;20195;-79
2023/06/07 05:03:13;;;;;;;17.30;11.00;;;14.90;54.50;;;;;;5053743;28;20205;-80
2023/06/07 05:05:40;;;;;;;18.93;11.37;;;14.80;53.80;;;;;;5035740;28;20816;-79
2023/06/07 05:08:05;;;;;;;17.60;11.17;;;14.80;55.70;;;;;;5035902;28;20174;-79
2023/06/07 05:10:31;;;;;;;18.20;11.13;;;14.80;55.90;;;;;;5054309;28;20636;-80
2023/06/07 05:12:57;;;;;;;20.23;11.50;;;14.80;55.00;;;;;;5053567;28;20181;-79
2023/06/07 05:15:24;;;;;;;19.57;11.13;;;14.80;54.80;;;;;;5053880;28;20171;-82
2023/06/07 05:17:50;;;;;;;18.00;12.17;;;14.80;56.00;;;;;;5035769;28;20542;-78
2023/06/07 05:20:18;;;;;;;20.03;12.83;;;14.80;55.40;;;;;;5054137;28;20196;-80
2023/06/07 05:22:45;;;;;;;17.10;11.23;;;14.80;54.10;;;;;;5037760;28;20308;-79
2023/06/07 05:25:14;;;;;;;18.57;11.90;;;14.80;51.20;;;;;;5054290;28;20648;-80
2023/06/07 05:27:42;;;;;;;14.17;10.83;;;14.80;52.10;;;;;;5055398;28;20180;-79
2023/06/07 05:30:08;;;;;;;17.43;12.03;;;14.90;50.90;;;;;;5037503;28;20183;-79
2023/06/07 05:32:35;;;;;;;16.50;10.90;;;14.90;52.10;;;;;;5036828;28;20187;-81
2023/06/07 05:35:03;;;;;;;20.53;12.50;;;14.90;49.20;;;;;;5053982;28;20674;-80
2023/06/07 05:37:30;;;;;;;16.23;11.30;;;15.00;49.30;;;;;;5035650;28;20191;-79
2023/06/07 05:39:58;;;;;;;17.93;11.40;;;14.90;46.70;;;;;;5056647;28;20163;-78
2023/06/07 05:42:24;;;;;;;20.47;11.30;;;15.00;45.20;;;;;;5058657;28;20210;-79
2023/06/07 05:44:53;;;;;;;17.87;11.90;;;15.00;47.10;;;;;;5072797;28;20219;-79
2023/06/07 05:47:20;;;;;;;19.33;12.60;;;15.00;46.20;;;;;;5059728;28;20175;-81
2023/06/07 05:49:46;;;;;;;18.37;12.27;;;15.20;45.50;;;;;;5054148;28;20195;-81
2023/06/07 05:52:18;;;;;;;17.17;12.73;;;15.30;38.20;;;;;;5053479;28;20181;-81
2023/06/07 05:54:54;;;;;;;21.10;12.07;;;15.50;33.20;;;;;;5054323;28;20251;-79
2023/06/07 05:57:20;;;;;;;16.40;11.57;;;15.50;29.00;;;;;;5055683;28;20168;-83
2023/06/07 05:59:45;;;;;;;18.13;11.50;;;15.60;28.50;;;;;;5038524;28;20188;-80
2023/06/07 06:02:12;;;;;;;18.17;11.93;;;15.70;23.50;;;;;;5056918;28;20561;-81
2023/06/07 06:04:38;;;;;;;18.33;12.73;;;15.80;17.80;;;;;;5056890;28;20576;-80
2023/06/07 06:07:04;;;;;;;15.23;11.63;;;15.80;15.90;;;;;;5055663;28;20204;-80
2023/06/07 06:09:30;;;;;;;18.10;11.33;;;15.90;13.10;;;;;;5062557;28;20679;-80
2023/06/07 06:11:56;;;;;;;18.50;12.23;;;15.80;13.00;;;;;;5044385;28;20227;-79
2023/06/07 06:14:25;;;;;;;17.77;12.07;;;15.90;12.90;;;;;;5044934;28;20176;-83
2023/06/07 06:16:50;;;;;;;14.83;10.77;;;16.10;12.00;;;;;;5060804;28;20256;-81
2023/06/07 06:19:16;;;;;;;15.63;11.33;;;16.20;4.40;;;;;;5059128;28;20211;-80
2023/06/07 06:21:52;;;;;;;22.73;11.63;;;16.20;1.00;;;;;;5042502;28;20216;-81
2023/06/07 06:24:18;;;;;;;19.70;11.43;;;15.80;6.50;;;;;;5061424;28;20169;-83
2023/06/07 06:26:45;;;;;;;19.67;12.33;;;15.80;12.00;;;;;;5058567;28;20173;-81
2023/06/07 06:29:10;;;;;;;18.70;11.77;;;15.70;15.50;;;;;;5041056;28;20658;-79
2023/06/07 06:31:36;;;;;;;15.53;12.00;;;15.70;16.40;;;;;;5039768;28;20275;-81
2023/06/07 06:34:02;;;;;;;22.90;12.73;;;15.60;17.40;;;;;;5036136;28;20211;-83
2023/06/07 06:36:28;;;;;;;20.37;12.70;;;15.80;24.80;;;;;;5054126;28;20228;-80
2023/06/07 06:38:54;;;;;;;22.73;12.47;;;15.90;11.70;;;;;;5054619;28;20625;-80
2023/06/07 06:41:20;;;;;;;17.23;11.93;;;15.80;11.40;;;;;;5054455;28;20204;-82
2023/06/07 06:43:47;;;;;;;16.70;12.20;;;16.00;8.80;;;;;;5054523;28;20212;-81
2023/06/07 06:46:12;;;;;;;17.27;12.77;;;16.00;9.00;;;;;;5056647;28;20176;-81
2023/06/07 06:48:38;;;;;;;19.67;12.40;;;15.90;9.80;;;;;;5041973;28;20236;-80
2023/06/07 06:51:04;;;;;;;21.23;13.40;;;15.90;13.40;;;;;;5054761;28;20178;-81
2023/06/07 06:53:30;;;;;;;23.37;14.27;;;16.20;8.70;;;;;;5046328;28;20192;-80
2023/06/07 06:55:55;;;;;;;23.30;11.97;;;16.50;1.70;;;;;;5054781;28;20273;-81
2023/06/07 06:58:21;;;;;;;21.63;12.70;;;16.60;1.00;;;;;;5059117;28;20586;-81
2023/06/07 07:00:48;;;;;;;20.30;12.50;;;16.40;1.00;;;;;;5054488;28;20194;-80
2023/06/07 07:03:13;;;;;;;17.00;12.53;;;16.60;1.00;;;;;;5038115;28;20220;-82
2023/06/07 07:05:39;;;;;;;20.23;12.20;;;16.60;1.00;;;;;;5037727;28;20172;-80
2023/06/07 07:08:06;;;;;;;22.43;12.47;;;16.70;1.00;;;;;;5054049;28;20274;-81
2023/06/07 07:10:32;;;;;;;16.00;11.53;;;16.80;1.00;;;;;;5062570;28;20181;-81
2023/06/07 07:12:58;;;;;;;17.53;12.37;;;16.50;1.00;;;;;;5038406;28;20617;-80
2023/06/07 07:15:27;;;;;;;19.63;13.13;;;16.40;1.00;;;;;;5058075;28;20181;-80
2023/06/07 07:17:53;;;;;;;20.33;12.70;;;16.30;2.00;;;;;;5072018;28;20188;-82
2023/06/07 07:20:18;;;;;;;20.43;12.67;;;16.40;1.00;;;;;;5039820;28;20188;-80
2023/06/07 07:22:46;;;;;;;21.80;13.13;;;16.50;1.00;;;;;;5038184;28;20211;-81
2023/06/07 07:25:13;;;;;;;18.50;12.93;;;16.70;1.00;;;;;;5049041;28;20181;-81
2023/06/07 07:27:45;;;;;;;17.03;12.47;;;16.50;1.00;;;;;;5056524;28;20169;-91
2023/06/07 07:30:11;;;;;;;18.17;13.27;;;16.50;1.00;;;;;;5038199;28;20222;-80
2023/06/07 07:32:37;;;;;;;18.10;13.63;;;16.50;1.00;;;;;;5055508;28;20191;-80
2023/06/07 07:35:03;;;;;;;21.17;13.03;;;16.60;1.00;;;;;;5038150;28;20177;-80
2023/06/07 07:37:29;;;;;;;22.93;13.80;;;16.70;1.00;;;;;;5037173;28;20503;-82
2023/06/07 07:39:55;;;;;;;19.27;12.93;;;16.80;1.00;;;;;;5057221;28;20174;-80
2023/06/07 07:42:21;;;;;;;19.87;14.07;;;16.80;1.00;;;;;;5039044;28;20216;-80
2023/06/07 07:44:46;;;;;;;21.50;12.20;;;16.80;1.00;;;;;;5045178;28;20239;-80
2023/06/07 07:47:12;;;;;;;19.47;12.23;;;17.00;1.00;;;;;;5075503;28;20184;-81
2023/06/07 07:49:38;;;;;;;18.47;12.30;;;17.40;1.00;;;;;;5075525;28;20180;-83
2023/06/07 07:52:04;;;;;;;19.73;13.67;;;17.40;1.00;;;;;;5045161;28;20189;-82
2023/06/07 07:54:31;;;;;;;16.70;12.03;;;17.20;1.00;;;;;;5041586;28;20518;-81
2023/06/07 07:56:56;;;;;;;19.23;13.30;;;17.30;1.00;;;;;;5040420;28;20529;-80
2023/06/07 07:59:29;;;;;;;18.93;14.03;;;17.20;1.00;;;;;;5048911;28;20207;-81
2023/06/07 08:01:58;;;;;;;20.27;13.13;;;17.10;1.00;;;;;;5048983;28;20204;-83
2023/06/07 08:04:23;;;;;;;18.70;12.87;;;17.00;1.00;;;;;;5041396;28;20671;-82
2023/06/07 08:06:49;;;;;;;19.07;12.70;;;17.10;1.00;;;;;;5055463;28;20220;-82
2023/06/07 08:09:15;;;;;;;20.33;13.17;;;17.10;1.00;;;;;;5038910;28;20507;-80
2023/06/07 08:11:41;;;;;;;21.17;13.87;;;17.10;1.00;;;;;;5033081;28;20638;-82
2023/06/07 08:14:06;;;;;;;22.23;14.10;;;17.00;1.00;;;;;;5044211;28;20203;-81
2023/06/07 08:16:34;;;;;;;18.17;13.07;;;16.90;1.00;;;;;;5054253;28;20182;-80
2023/06/07 08:19:00;;;;;;;21.63;13.27;;;16.80;1.00;;;;;;5052880;28;20265;-80
2023/06/07 08:21:26;;;;;;;24.77;14.30;;;16.80;1.00;;;;;;5047485;28;20742;-82
2023/06/07 08:23:55;;;;;;;19.67;13.03;;;16.90;1.00;;;;;;5045456;28;20211;-82
2023/06/07 08:26:22;;;;;;;19.27;12.23;;;16.90;1.00;;;;;;5054535;28;20251;-81
2023/06/07 08:28:48;;;;;;;19.90;12.40;;;16.80;1.00;;;;;;5056373;28;20174;-83
2023/06/07 08:31:14;;;;;;;18.17;12.60;;;17.00;1.00;;;;;;5057376;28;20182;-83
2023/06/07 08:33:40;;;;;;;15.63;12.33;;;17.30;1.00;;;;;;5054175;28;20237;-81
2023/06/07 08:36:05;;;;;;;19.87;13.40;;;17.50;1.00;;;;;;5053164;28;20192;-81
2023/06/07 08:38:31;;;;;;;23.33;14.27;;;17.60;1.00;;;;;;5051487;28;20196;-81
2023/06/07 08:41:00;;;;;;;21.17;13.87;;;17.60;1.00;;;;;;5054827;28;20257;-81
2023/06/07 08:43:26;;;;;;;17.97;13.50;;;17.60;1.00;;;;;;5041390;28;20255;-80
2023/06/07 08:45:52;;;;;;;20.33;13.53;;;17.80;1.00;;;;;;5061914;28;20696;-79
2023/06/07 08:48:18;;;;;;;19.00;14.07;;;18.00;1.00;;;;;;5069773;28;20175;-77
2023/06/07 08:50:49;;;;;;;19.70;13.90;;;18.30;1.00;;;;;;5066853;28;20523;-80
2023/06/07 08:53:27;;;;;;;22.90;14.97;;;18.60;1.00;;;;;;5051542;28;20184;-80
2023/06/07 08:56:47;;;;;;;21.87;15.30;;;18.60;1.00;;;;;;5057239;28;20158;-81
2023/06/07 08:59:14;;;;;;;25.57;14.93;;;18.60;1.00;;;;;;5060619;28;20191;-82
2023/06/07 09:02:12;;;;;;;20.70;14.27;;;18.70;1.00;;;;;;5043522;28;20205;-84
2023/06/07 09:04:43;;;;;;;19.83;13.50;;;18.70;1.00;;;;;;5063283;28;20165;-82
2023/06/07 09:07:12;;;;;;;21.43;14.17;;;18.70;1.00;;;;;;5057608;28;20268;-81
2023/06/07 09:09:45;;;;;;;20.60;13.60;;;18.90;1.00;;;;;;5056097;28;20198;-82
2023/06/07 09:12:11;;;;;;;21.37;14.07;;;18.90;1.00;;;;;;5049565;28;20237;-81
2023/06/07 09:14:37;;;;;;;17.77;13.00;;;19.00;1.00;;;;;;5040385;28;20198;-81
2023/06/07 09:17:03;;;;;;;17.27;13.90;;;18.90;1.00;;;;;;5072425;28;20173;-83
2023/06/07 09:19:31;;;;;;;17.20;13.57;;;18.80;1.00;;;;;;5058559;28;20177;-82
2023/06/07 09:21:57;;;;;;;16.43;13.20;;;18.70;1.00;;;;;;5076529;28;20251;-82
2023/06/07 09:24:28;;;;;;;18.43;14.10;;;18.50;1.00;;;;;;5076118;28;20157;-84
2023/06/07 09:27:01;;;;;;;20.93;14.07;;;18.50;1.00;;;;;;5051022;28;20231;-82
2023/06/07 09:29:43;;;;;;;19.87;14.07;;;18.50;1.00;;;;;;5064119;28;20157;-81
2023/06/07 09:32:23;;;;;;;24.23;14.40;;;18.60;1.00;;;;;;5061457;28;20188;-83
2023/06/07 09:35:11;;;;;;;18.33;13.80;;;18.80;1.00;;;;;;5040819;28;20165;-81
2023/06/07 09:37:44;;;;;;;17.20;13.57;;;18.90;1.00;;;;;;5057959;28;20163;-82
2023/06/07 09:40:11;;;;;;;20.80;14.40;;;19.10;1.00;;;;;;5039447;28;20186;-81
2023/06/07 09:42:37;;;;;;;21.67;14.30;;;19.20;1.00;;;;;;5055388;28;20288;-81
2023/06/07 09:45:13;;;;;;;22.53;14.43;;;19.30;1.00;;;;;;5054001;28;20197;-84
2023/06/07 09:47:43;;;;;;;19.87;13.87;;;19.50;1.00;;;;;;5055219;28;20167;-85
2023/06/07 09:50:13;;;;;;;19.43;14.03;;;19.70;1.00;;;;;;5054250;28;20165;-83
2023/06/07 09:52:39;;;;;;;17.17;13.23;;;19.90;1.00;;;;;;5054365;28;20226;-81
2023/06/07 09:55:06;;;;;;;20.63;14.70;;;19.80;1.00;;;;;;5054797;28;20576;-85
2023/06/07 09:57:34;;;;;;;19.80;14.17;;;19.80;1.00;;;;;;5053261;28;20160;-85
2023/06/07 10:00:10;;;;;;;21.53;14.90;;;19.90;1.00;;;;;;5051933;28;20197;-84
2023/06/07 10:02:36;;;;;;;17.53;13.27;;;19.90;1.00;;;;;;5048202;28;20211;-84
2023/06/07 10:05:02;;;;;;;16.97;13.30;;;20.10;1.00;;;;;;5040177;28;20667;-81
2023/06/07 10:07:36;;;;;;;17.77;13.17;;;20.10;1.00;;;;;;5054439;28;20177;-84
2023/06/07 10:10:02;;;;;;;17.67;12.57;;;20.30;1.00;;;;;;5054452;28;20165;-83
2023/06/07 10:12:30;;;;;;;16.37;13.17;;;20.50;1.00;;;;;;5056153;28;20682;-81
2023/06/07 10:15:00;;;;;;;22.33;13.93;;;20.70;1.00;;;;;;5035140;28;20627;-81
2023/06/07 10:17:35;;;;;;;20.30;13.73;;;20.90;1.00;;;;;;5053128;28;20182;-80
2023/06/07 10:20:04;;;;;;;15.70;11.87;;;21.10;1.00;;;;;;5052624;28;20251;-80
2023/06/07 10:22:36;;;;;;;21.10;12.93;;;21.30;1.00;;;;;;5036468;28;20718;-81
2023/06/07 10:25:20;;;;;;;17.93;14.03;;;21.40;1.00;;;;;;5057921;28;20644;-81
2023/06/07 10:28:04;;;;;;;17.00;13.40;;;21.30;1.00;;;;;;5036066;28;20183;-82
2023/06/07 10:30:34;;;;;;;17.37;13.07;;;21.50;1.00;;;;;;5035124;28;20540;-80
2023/06/07 10:33:04;;;;;;;13.73;12.27;;;21.80;1.00;;;;;;5053724;28;20181;-83
2023/06/07 10:35:31;;;;;;;14.70;12.27;;;21.70;1.00;;;;;;5055941;28;20158;-82
2023/06/07 10:37:57;;;;;;;16.17;12.03;;;21.70;1.00;;;;;;5054948;28;20169;-83
2023/06/07 10:40:25;;;;;;;16.83;12.60;;;21.80;1.00;;;;;;5018989;28;20181;-81
2023/06/07 10:42:51;;;;;;;16.93;11.90;;;22.00;1.00;;;;;;5036893;28;20233;-82
2023/06/07 10:45:18;;;;;;;14.53;10.63;;;22.10;1.00;;;;;;5056676;28;20597;-80
2023/06/07 10:47:45;;;;;;;17.83;12.20;;;22.30;1.00;;;;;;5057061;28;20503;-82
2023/06/07 10:50:31;;;;;;;15.00;11.53;;;22.50;1.00;;;;;;5058364;28;20167;-82
2023/06/07 10:52:58;;;;;;;14.43;11.77;;;22.80;1.00;;;;;;5057244;28;20591;-81
2023/06/07 10:55:26;;;;;;;14.97;11.60;;;22.80;1.00;;;;;;5057636;28;20206;-81
2023/06/07 10:57:53;;;;;;;18.67;11.53;;;22.70;1.00;;;;;;5038217;28;20248;-82
2023/06/07 11:00:34;;;;;;;15.10;10.43;;;22.60;1.00;;;;;;5056387;28;20199;-81
2023/06/07 11:03:15;;;;;;;18.77;11.80;;;22.70;1.00;;;;;;5056734;28;20698;-81
2023/06/07 11:06:01;;;;;;;15.37;10.50;;;22.90;1.00;;;;;;5056381;28;20168;-82
2023/06/07 11:08:33;;;;;;;14.50;10.43;;;22.90;99.90;;;;;;5055888;28;20162;-80
2023/06/07 11:11:00;;;;;;;20.07;11.87;;;22.80;1.00;;;;;;5056170;28;20212;-81
2023/06/07 11:13:53;;;;;;;16.20;11.23;;;23.00;1.00;;;;;;5038099;28;20180;-81
2023/06/07 11:16:25;;;;;;;14.50;10.47;;;23.10;1.00;;;;;;5037796;28;20514;-82
2023/06/07 11:19:07;;;;;;;15.60;10.50;;;23.00;1.00;;;;;;5055663;28;20181;-81
2023/06/07 11:21:55;;;;;;;13.47;10.77;;;23.20;99.90;;;;;;5037655;28;20273;-80
2023/06/07 11:24:22;;;;;;;15.77;10.50;;;23.10;99.90;;;;;;5055030;28;20176;-84
2023/06/07 11:26:50;;;;;;;13.07;10.50;;;23.20;99.90;;;;;;5040548;28;20177;-83
2023/06/07 11:29:16;;;;;;;13.73;9.00;;;23.40;99.90;;;;;;5056207;28;20259;-82
2023/06/07 11:31:55;;;;;;;14.37;10.10;;;23.40;99.90;;;;;;5038544;28;20234;-81
2023/06/07 11:34:21;;;;;;;12.90;9.47;;;23.30;99.90;;;;;;5056828;28;20156;-85
2023/06/07 11:36:47;;;;;;;13.50;9.90;;;23.20;99.90;;;;;;5034933;28;20258;-82
2023/06/07 11:39:17;;;;;;;16.00;9.20;;;23.20;99.90;;;;;;5037486;28;20267;-83
2023/06/07 11:41:43;;;;;;;15.70;10.60;;;23.40;99.90;;;;;;5038373;28;20294;-83
2023/06/07 11:44:10;;;;;;;17.80;9.73;;;23.50;99.90;;;;;;5039761;28;20198;-82
2023/06/07 11:46:36;;;;;;;13.10;9.80;;;23.40;99.90;;;;;;5041826;28;20215;-83
2023/06/07 11:49:11;;;;;;;12.73;8.07;;;23.30;99.90;;;;;;5054912;28;20184;-82
2023/06/07 11:51:39;;;;;;;15.07;8.97;;;23.50;99.90;;;;;;5060638;28;20167;-82
2023/06/07 11:54:05;;;;;;;15.07;9.47;;;23.40;99.90;;;;;;5039409;28;20176;-83
2023/06/07 11:56:36;;;;;;;12.60;8.50;;;23.50;99.90;;;;;;5041585;28;20531;-83
2023/06/07 11:59:03;;;;;;;17.27;8.23;;;23.60;99.90;;;;;;5071645;28;20255;-83
2023/06/07 12:01:33;;;;;;;10.60;7.63;;;23.70;99.90;;;;;;5038231;28;20203;-81
2023/06/07 12:03:58;;;;;;;13.03;8.67;;;23.70;99.90;;;;;;5038416;28;20188;-82
2023/06/07 12:06:28;;;;;;;14.53;9.27;;;23.80;99.90;;;;;;5056018;28;20276;-83
2023/06/07 12:08:55;;;;;;;12.67;8.03;;;23.70;99.90;;;;;;5038838;28;20265;-80
2023/06/07 12:11:23;;;;;;;11.40;7.73;;;23.70;99.90;;;;;;5037749;28;20173;-82
2023/06/07 12:13:53;;;;;;;11.23;7.57;;;23.90;99.90;;;;;;5056074;28;20161;-82
2023/06/07 12:16:23;;;;;;;12.43;7.87;;;24.10;99.90;;;;;;5059479;28;20161;-84
2023/06/07 12:18:51;;;;;;;13.60;8.53;;;23.90;99.90;;;;;;5078928;28;20156;-82
2023/06/07 12:21:18;;;;;;;10.67;7.77;;;23.90;99.90;;;;;;5060848;28;20235;-83
2023/06/07 12:23:53;;;;;;;13.27;7.27;;;23.90;99.90;;;;;;5052750;28;20331;-82
2023/06/07 12:26:25;;;;;;;14.20;7.13;;;23.90;99.90;;;;;;5059394;28;20217;-82
2023/06/07 12:29:01;;;;;;;11.67;8.03;;;24.00;99.90;;;;;;5059429;28;20234;-83
2023/06/07 12:31:39;;;;;;;14.53;7.63;;;24.00;99.90;;;;;;5056558;28;20192;-83
2023/06/07 12:34:44;;;;;;;9.43;6.53;;;24.10;99.90;;;;;;5056496;28;20232;-83
2023/06/07 12:37:10;;;;;;;13.27;6.70;;;24.30;50.70;;;;;;5055812;28;20629;-83
2023/06/07 12:39:42;;;;;;;16.47;7.13;;;24.60;1.00;;;;;;5039234;28;20177;-82
2023/06/07 12:42:10;;;;;;;10.03;7.07;;;24.60;22.20;;;;;;5054747;28;20246;-81